sensor_id;sensor_type;location;lat;lon;timestamp;P1;durP1;ratioP1;P2;durP2;ratioP2
9228;SDS011;4649;42.644;23.284;2023-08-08T00:02:14;1.20;;;1.10;;
9228;SDS011;4649;42.644;23.284;2023-08-08T00:04:49;2.13;;;1.37;;
9228;SDS011;4649;42.644;23.284;2023-08-08T00:07:19;1.00;;;0.97;;
9228;SDS011;4649;42.644;23.284;2023-08-08T00:09:55;1.13;;;1.03;;
9228;SDS011;4649;42.644;23.284;2023-08-08T00:12:22;1.20;;;1.20;;
9228;SDS011;4649;42.644;23.284;2023-08-08T00:14:51;0.90;;;0.90;;
9228;SDS011;4649;42.644;23.284;2023-08-08T00:17:21;0.90;;;0.90;;
9228;SDS011;4649;42.644;23.284;2023-08-08T00:19:48;1.40;;;1.30;;
9228;SDS011;4649;42.644;23.284;2023-08-08T00:22:24;1.00;;;1.00;;
9228;SDS011;4649;42.644;23.284;2023-08-08T00:24:52;1.30;;;1.20;;
9228;SDS011;4649;42.644;23.284;2023-08-08T00:27:19;1.10;;;1.00;;
9228;SDS011;4649;42.644;23.284;2023-08-08T00:29:47;0.70;;;0.70;;
9228;SDS011;4649;42.644;23.284;2023-08-08T00:32:15;0.83;;;0.83;;
9228;SDS011;4649;42.644;23.284;2023-08-08T00:34:43;1.37;;;1.00;;
9228;SDS011;4649;42.644;23.284;2023-08-08T00:37:10;0.70;;;0.70;;
9228;SDS011;4649;42.644;23.284;2023-08-08T00:39:39;0.97;;;0.97;;
9228;SDS011;4649;42.644;23.284;2023-08-08T00:42:11;1.20;;;1.20;;
9228;SDS011;4649;42.644;23.284;2023-08-08T00:44:38;1.00;;;1.00;;
9228;SDS011;4649;42.644;23.284;2023-08-08T00:47:06;1.10;;;1.00;;
9228;SDS011;4649;42.644;23.284;2023-08-08T00:49:33;2.53;;;0.90;;
9228;SDS011;4649;42.644;23.284;2023-08-08T00:52:01;1.17;;;1.17;;
9228;SDS011;4649;42.644;23.284;2023-08-08T00:54:28;1.00;;;1.00;;
9228;SDS011;4649;42.644;23.284;2023-08-08T00:56:58;0.80;;;0.80;;
9228;SDS011;4649;42.644;23.284;2023-08-08T00:59:25;0.80;;;0.80;;
9228;SDS011;4649;42.644;23.284;2023-08-08T01:01:57;1.00;;;1.00;;
9228;SDS011;4649;42.644;23.284;2023-08-08T01:04:25;0.90;;;0.90;;
9228;SDS011;4649;42.644;23.284;2023-08-08T01:06:54;0.67;;;0.67;;
9228;SDS011;4649;42.644;23.284;2023-08-08T01:09:33;0.90;;;0.90;;
9228;SDS011;4649;42.644;23.284;2023-08-08T01:12:08;0.60;;;0.60;;
9228;SDS011;4649;42.644;23.284;2023-08-08T01:14:37;0.90;;;0.90;;
9228;SDS011;4649;42.644;23.284;2023-08-08T01:17:07;0.60;;;0.60;;
9228;SDS011;4649;42.644;23.284;2023-08-08T01:19:38;1.10;;;1.10;;
9228;SDS011;4649;42.644;23.284;2023-08-08T01:22:06;0.97;;;0.97;;
9228;SDS011;4649;42.644;23.284;2023-08-08T01:24:42;1.00;;;0.77;;
9228;SDS011;4649;42.644;23.284;2023-08-08T01:27:10;0.90;;;0.90;;
9228;SDS011;4649;42.644;23.284;2023-08-08T01:29:37;0.90;;;0.90;;
9228;SDS011;4649;42.644;23.284;2023-08-08T01:32:06;1.13;;;1.10;;
9228;SDS011;4649;42.644;23.284;2023-08-08T01:34:34;0.70;;;0.70;;
9228;SDS011;4649;42.644;23.284;2023-08-08T01:37:02;0.87;;;0.87;;
9228;SDS011;4649;42.644;23.284;2023-08-08T01:39:35;1.60;;;1.13;;
9228;SDS011;4649;42.644;23.284;2023-08-08T01:42:07;0.90;;;0.90;;
9228;SDS011;4649;42.644;23.284;2023-08-08T01:44:35;1.70;;;0.73;;
9228;SDS011;4649;42.644;23.284;2023-08-08T01:47:05;1.00;;;1.00;;
9228;SDS011;4649;42.644;23.284;2023-08-08T01:49:33;1.00;;;1.00;;
9228;SDS011;4649;42.644;23.284;2023-08-08T01:52:00;2.47;;;1.53;;
9228;SDS011;4649;42.644;23.284;2023-08-08T01:54:27;1.10;;;1.10;;
9228;SDS011;4649;42.644;23.284;2023-08-08T01:56:54;1.27;;;1.10;;
9228;SDS011;4649;42.644;23.284;2023-08-08T01:59:23;1.00;;;1.00;;
9228;SDS011;4649;42.644;23.284;2023-08-08T02:01:50;1.10;;;1.10;;
9228;SDS011;4649;42.644;23.284;2023-08-08T02:04:17;0.97;;;0.97;;
9228;SDS011;4649;42.644;23.284;2023-08-08T02:06:45;1.20;;;1.20;;
9228;SDS011;4649;42.644;23.284;2023-08-08T02:09:12;1.13;;;1.03;;
9228;SDS011;4649;42.644;23.284;2023-08-08T02:11:40;0.83;;;0.83;;
9228;SDS011;4649;42.644;23.284;2023-08-08T02:14:07;1.10;;;1.10;;
9228;SDS011;4649;42.644;23.284;2023-08-08T02:16:36;1.37;;;1.00;;
9228;SDS011;4649;42.644;23.284;2023-08-08T02:19:04;1.00;;;1.00;;
9228;SDS011;4649;42.644;23.284;2023-08-08T02:21:32;1.00;;;1.00;;
9228;SDS011;4649;42.644;23.284;2023-08-08T02:23:59;1.00;;;1.00;;
9228;SDS011;4649;42.644;23.284;2023-08-08T02:29:12;1.10;;;1.10;;
9228;SDS011;4649;42.644;23.284;2023-08-08T02:31:40;1.20;;;1.20;;
9228;SDS011;4649;42.644;23.284;2023-08-08T02:34:07;1.20;;;1.20;;
9228;SDS011;4649;42.644;23.284;2023-08-08T02:36:34;1.30;;;1.30;;
9228;SDS011;4649;42.644;23.284;2023-08-08T02:39:02;1.13;;;1.13;;
9228;SDS011;4649;42.644;23.284;2023-08-08T02:41:29;1.07;;;1.07;;
9228;SDS011;4649;42.644;23.284;2023-08-08T02:43:56;1.20;;;1.20;;
9228;SDS011;4649;42.644;23.284;2023-08-08T02:46:24;2.60;;;1.53;;
9228;SDS011;4649;42.644;23.284;2023-08-08T02:48:53;1.33;;;1.33;;
9228;SDS011;4649;42.644;23.284;2023-08-08T02:51:20;1.47;;;1.40;;
9228;SDS011;4649;42.644;23.284;2023-08-08T02:53:47;1.70;;;1.60;;
9228;SDS011;4649;42.644;23.284;2023-08-08T02:56:15;1.47;;;1.40;;
9228;SDS011;4649;42.644;23.284;2023-08-08T02:58:42;1.30;;;1.30;;
9228;SDS011;4649;42.644;23.284;2023-08-08T03:01:10;1.17;;;1.17;;
9228;SDS011;4649;42.644;23.284;2023-08-08T03:03:38;1.20;;;1.20;;
9228;SDS011;4649;42.644;23.284;2023-08-08T03:06:07;1.60;;;1.40;;
9228;SDS011;4649;42.644;23.284;2023-08-08T03:08:35;3.53;;;1.50;;
9228;SDS011;4649;42.644;23.284;2023-08-08T03:11:03;1.10;;;1.10;;
9228;SDS011;4649;42.644;23.284;2023-08-08T03:13:30;1.63;;;1.53;;
9228;SDS011;4649;42.644;23.284;2023-08-08T03:15:57;3.00;;;1.67;;
9228;SDS011;4649;42.644;23.284;2023-08-08T03:18:25;1.17;;;1.17;;
9228;SDS011;4649;42.644;23.284;2023-08-08T03:20:52;1.87;;;1.77;;
9228;SDS011;4649;42.644;23.284;2023-08-08T03:23:21;1.43;;;1.33;;
9228;SDS011;4649;42.644;23.284;2023-08-08T03:25:49;1.57;;;1.57;;
9228;SDS011;4649;42.644;23.284;2023-08-08T03:28:16;1.40;;;1.40;;
9228;SDS011;4649;42.644;23.284;2023-08-08T03:30:43;1.33;;;1.33;;
9228;SDS011;4649;42.644;23.284;2023-08-08T03:33:10;1.97;;;1.87;;
9228;SDS011;4649;42.644;23.284;2023-08-08T03:35:38;4.23;;;1.73;;
9228;SDS011;4649;42.644;23.284;2023-08-08T03:38:05;1.63;;;1.60;;
9228;SDS011;4649;42.644;23.284;2023-08-08T03:40:34;1.60;;;1.60;;
9228;SDS011;4649;42.644;23.284;2023-08-08T03:43:02;2.03;;;2.03;;
9228;SDS011;4649;42.644;23.284;2023-08-08T03:45:31;1.60;;;1.60;;
9228;SDS011;4649;42.644;23.284;2023-08-08T03:47:58;2.60;;;1.87;;
9228;SDS011;4649;42.644;23.284;2023-08-08T03:50:25;1.47;;;1.47;;
9228;SDS011;4649;42.644;23.284;2023-08-08T03:52:52;1.47;;;1.47;;
9228;SDS011;4649;42.644;23.284;2023-08-08T03:55:19;1.47;;;1.47;;
9228;SDS011;4649;42.644;23.284;2023-08-08T03:57:48;1.63;;;1.37;;
9228;SDS011;4649;42.644;23.284;2023-08-08T04:00:16;1.60;;;1.60;;
9228;SDS011;4649;42.644;23.284;2023-08-08T04:02:43;1.63;;;1.50;;
9228;SDS011;4649;42.644;23.284;2023-08-08T04:05:10;1.33;;;1.33;;
9228;SDS011;4649;42.644;23.284;2023-08-08T04:07:39;1.33;;;1.33;;
9228;SDS011;4649;42.644;23.284;2023-08-08T04:10:08;1.50;;;1.50;;
9228;SDS011;4649;42.644;23.284;2023-08-08T04:12:35;1.60;;;1.60;;
9228;SDS011;4649;42.644;23.284;2023-08-08T04:15:04;1.60;;;1.60;;
9228;SDS011;4649;42.644;23.284;2023-08-08T04:17:32;1.57;;;1.57;;
9228;SDS011;4649;42.644;23.284;2023-08-08T04:19:59;1.83;;;1.23;;
9228;SDS011;4649;42.644;23.284;2023-08-08T04:22:27;1.47;;;1.47;;
9228;SDS011;4649;42.644;23.284;2023-08-08T04:24:54;1.30;;;1.30;;
9228;SDS011;4649;42.644;23.284;2023-08-08T04:27:21;1.60;;;1.60;;
9228;SDS011;4649;42.644;23.284;2023-08-08T04:29:49;1.50;;;1.50;;
9228;SDS011;4649;42.644;23.284;2023-08-08T04:32:18;1.80;;;1.80;;
9228;SDS011;4649;42.644;23.284;2023-08-08T04:34:48;1.43;;;1.33;;
9228;SDS011;4649;42.644;23.284;2023-08-08T04:37:15;1.93;;;1.77;;
9228;SDS011;4649;42.644;23.284;2023-08-08T04:39:42;1.73;;;1.60;;
9228;SDS011;4649;42.644;23.284;2023-08-08T04:42:10;1.50;;;1.50;;
9228;SDS011;4649;42.644;23.284;2023-08-08T04:44:39;1.83;;;1.80;;
9228;SDS011;4649;42.644;23.284;2023-08-08T04:47:09;2.30;;;1.60;;
9228;SDS011;4649;42.644;23.284;2023-08-08T04:49:37;1.80;;;1.70;;
9228;SDS011;4649;42.644;23.284;2023-08-08T04:52:05;1.83;;;1.73;;
9228;SDS011;4649;42.644;23.284;2023-08-08T04:54:33;1.23;;;1.20;;
9228;SDS011;4649;42.644;23.284;2023-08-08T04:57:00;1.43;;;1.43;;
9228;SDS011;4649;42.644;23.284;2023-08-08T04:59:28;1.60;;;1.60;;
9228;SDS011;4649;42.644;23.284;2023-08-08T05:01:56;1.40;;;1.40;;
9228;SDS011;4649;42.644;23.284;2023-08-08T05:04:24;1.77;;;1.73;;
9228;SDS011;4649;42.644;23.284;2023-08-08T05:06:55;1.60;;;1.60;;
9228;SDS011;4649;42.644;23.284;2023-08-08T05:09:24;3.40;;;1.30;;
9228;SDS011;4649;42.644;23.284;2023-08-08T05:11:53;1.30;;;1.30;;
9228;SDS011;4649;42.644;23.284;2023-08-08T05:14:22;1.50;;;1.50;;
9228;SDS011;4649;42.644;23.284;2023-08-08T05:16:50;1.33;;;1.30;;
9228;SDS011;4649;42.644;23.284;2023-08-08T05:19:18;2.03;;;1.27;;
9228;SDS011;4649;42.644;23.284;2023-08-08T05:21:51;2.67;;;1.30;;
9228;SDS011;4649;42.644;23.284;2023-08-08T05:24:30;0.90;;;0.90;;
9228;SDS011;4649;42.644;23.284;2023-08-08T05:27:04;1.10;;;1.10;;
9228;SDS011;4649;42.644;23.284;2023-08-08T05:29:44;0.90;;;0.90;;
9228;SDS011;4649;42.644;23.284;2023-08-08T06:10:03;1.77;;;1.50;;
9228;SDS011;4649;42.644;23.284;2023-08-08T06:12:47;1.73;;;1.70;;
9228;SDS011;4649;42.644;23.284;2023-08-08T06:15:21;2.07;;;2.03;;
9228;SDS011;4649;42.644;23.284;2023-08-08T06:17:50;1.93;;;1.83;;
9228;SDS011;4649;42.644;23.284;2023-08-08T06:20:38;1.60;;;1.60;;
9228;SDS011;4649;42.644;23.284;2023-08-08T06:23:22;1.50;;;1.40;;
9228;SDS011;4649;42.644;23.284;2023-08-08T06:25:53;3.07;;;1.77;;
9228;SDS011;4649;42.644;23.284;2023-08-08T06:28:34;1.07;;;1.07;;
9228;SDS011;4649;42.644;23.284;2023-08-08T17:47:26;0.97;;;0.97;;
9228;SDS011;4649;42.644;23.284;2023-08-08T17:49:56;0.60;;;0.60;;
9228;SDS011;4649;42.644;23.284;2023-08-08T17:52:26;0.90;;;0.90;;
9228;SDS011;4649;42.644;23.284;2023-08-08T17:54:56;0.73;;;0.73;;
9228;SDS011;4649;42.644;23.284;2023-08-08T17:57:30;1.40;;;1.30;;
9228;SDS011;4649;42.644;23.284;2023-08-08T18:00:05;1.87;;;1.30;;
9228;SDS011;4649;42.644;23.284;2023-08-08T18:02:55;0.73;;;0.73;;
9228;SDS011;4649;42.644;23.284;2023-08-08T18:05:24;1.07;;;1.07;;
9228;SDS011;4649;42.644;23.284;2023-08-08T18:07:54;0.83;;;0.83;;
9228;SDS011;4649;42.644;23.284;2023-08-08T18:10:23;0.80;;;0.80;;
9228;SDS011;4649;42.644;23.284;2023-08-08T18:12:51;0.67;;;0.67;;
9228;SDS011;4649;42.644;23.284;2023-08-08T18:15:23;1.90;;;1.80;;
9228;SDS011;4649;42.644;23.284;2023-08-08T18:18:05;0.97;;;0.97;;
9228;SDS011;4649;42.644;23.284;2023-08-08T18:20:37;0.90;;;0.90;;
9228;SDS011;4649;42.644;23.284;2023-08-08T18:23:20;1.87;;;1.10;;
9228;SDS011;4649;42.644;23.284;2023-08-08T18:25:52;1.40;;;1.40;;
9228;SDS011;4649;42.644;23.284;2023-08-08T18:28:19;2.70;;;2.50;;
9228;SDS011;4649;42.644;23.284;2023-08-08T18:30:48;1.93;;;1.83;;
9228;SDS011;4649;42.644;23.284;2023-08-08T18:33:18;5.10;;;3.80;;
9228;SDS011;4649;42.644;23.284;2023-08-08T18:35:49;4.03;;;3.73;;
9228;SDS011;4649;42.644;23.284;2023-08-08T18:38:38;1.40;;;1.40;;
9228;SDS011;4649;42.644;23.284;2023-08-08T18:41:13;1.30;;;1.30;;
9228;SDS011;4649;42.644;23.284;2023-08-08T18:43:44;1.00;;;1.00;;
9228;SDS011;4649;42.644;23.284;2023-08-08T18:46:13;0.90;;;0.90;;
9228;SDS011;4649;42.644;23.284;2023-08-08T18:49:09;1.03;;;1.03;;
9228;SDS011;4649;42.644;23.284;2023-08-08T18:51:36;0.90;;;0.90;;
9228;SDS011;4649;42.644;23.284;2023-08-08T18:54:21;0.90;;;0.90;;
9228;SDS011;4649;42.644;23.284;2023-08-08T18:56:58;5.23;;;3.23;;
9228;SDS011;4649;42.644;23.284;2023-08-08T18:59:26;2.40;;;2.30;;
9228;SDS011;4649;42.644;23.284;2023-08-08T19:02:08;1.30;;;1.20;;
9228;SDS011;4649;42.644;23.284;2023-08-08T19:04:40;2.27;;;2.17;;
9228;SDS011;4649;42.644;23.284;2023-08-08T19:07:10;1.50;;;1.17;;
9228;SDS011;4649;42.644;23.284;2023-08-08T19:09:39;2.70;;;2.60;;
9228;SDS011;4649;42.644;23.284;2023-08-08T19:12:16;1.00;;;1.00;;
9228;SDS011;4649;42.644;23.284;2023-08-08T19:14:45;1.90;;;0.77;;
9228;SDS011;4649;42.644;23.284;2023-08-08T19:17:17;0.70;;;0.70;;
9228;SDS011;4649;42.644;23.284;2023-08-08T19:20:17;0.50;;;0.50;;
9228;SDS011;4649;42.644;23.284;2023-08-08T19:22:46;0.50;;;0.50;;
9228;SDS011;4649;42.644;23.284;2023-08-08T19:25:14;0.67;;;0.67;;
9228;SDS011;4649;42.644;23.284;2023-08-08T19:27:44;0.63;;;0.63;;
9228;SDS011;4649;42.644;23.284;2023-08-08T19:30:26;0.67;;;0.67;;
9228;SDS011;4649;42.644;23.284;2023-08-08T19:32:55;2.13;;;0.50;;
9228;SDS011;4649;42.644;23.284;2023-08-08T19:35:27;0.60;;;0.60;;
9228;SDS011;4649;42.644;23.284;2023-08-08T19:38:14;0.70;;;0.70;;
9228;SDS011;4649;42.644;23.284;2023-08-08T19:40:45;0.83;;;0.83;;
9228;SDS011;4649;42.644;23.284;2023-08-08T19:43:24;1.20;;;1.10;;
9228;SDS011;4649;42.644;23.284;2023-08-08T19:46:04;1.23;;;1.17;;
9228;SDS011;4649;42.644;23.284;2023-08-08T19:48:39;1.27;;;1.23;;
9228;SDS011;4649;42.644;23.284;2023-08-08T19:51:16;0.93;;;0.93;;
9228;SDS011;4649;42.644;23.284;2023-08-08T19:53:53;2.60;;;0.80;;
9228;SDS011;4649;42.644;23.284;2023-08-08T19:56:27;0.70;;;0.70;;
9228;SDS011;4649;42.644;23.284;2023-08-08T19:58:59;0.60;;;0.60;;
9228;SDS011;4649;42.644;23.284;2023-08-08T20:01:28;2.03;;;0.73;;
9228;SDS011;4649;42.644;23.284;2023-08-08T20:03:57;0.70;;;0.70;;
9228;SDS011;4649;42.644;23.284;2023-08-08T20:06:29;0.83;;;0.83;;
9228;SDS011;4649;42.644;23.284;2023-08-08T20:08:56;3.57;;;1.00;;
9228;SDS011;4649;42.644;23.284;2023-08-08T20:11:26;0.80;;;0.80;;
9228;SDS011;4649;42.644;23.284;2023-08-08T20:13:54;0.83;;;0.70;;
9228;SDS011;4649;42.644;23.284;2023-08-08T20:16:22;0.70;;;0.70;;
9228;SDS011;4649;42.644;23.284;2023-08-08T20:18:52;0.60;;;0.60;;
9228;SDS011;4649;42.644;23.284;2023-08-08T20:21:20;0.53;;;0.53;;
9228;SDS011;4649;42.644;23.284;2023-08-08T20:24:03;4.33;;;0.70;;
9228;SDS011;4649;42.644;23.284;2023-08-08T20:26:31;0.60;;;0.60;;
9228;SDS011;4649;42.644;23.284;2023-08-08T20:29:11;0.70;;;0.70;;
9228;SDS011;4649;42.644;23.284;2023-08-08T20:31:39;0.70;;;0.70;;
9228;SDS011;4649;42.644;23.284;2023-08-08T20:34:08;1.70;;;0.80;;
9228;SDS011;4649;42.644;23.284;2023-08-08T20:36:36;0.73;;;0.57;;
9228;SDS011;4649;42.644;23.284;2023-08-08T20:39:06;0.60;;;0.60;;
9228;SDS011;4649;42.644;23.284;2023-08-08T20:41:34;1.10;;;0.80;;
9228;SDS011;4649;42.644;23.284;2023-08-08T20:44:01;0.80;;;0.80;;
9228;SDS011;4649;42.644;23.284;2023-08-08T20:46:32;1.00;;;1.00;;
9228;SDS011;4649;42.644;23.284;2023-08-08T20:49:00;0.50;;;0.50;;
9228;SDS011;4649;42.644;23.284;2023-08-08T20:51:27;1.83;;;1.10;;
9228;SDS011;4649;42.644;23.284;2023-08-08T20:53:55;0.90;;;0.90;;
9228;SDS011;4649;42.644;23.284;2023-08-08T20:56:24;1.17;;;0.77;;
9228;SDS011;4649;42.644;23.284;2023-08-08T20:58:58;1.27;;;1.17;;
9228;SDS011;4649;42.644;23.284;2023-08-08T21:01:25;0.87;;;0.87;;
9228;SDS011;4649;42.644;23.284;2023-08-08T21:03:53;0.70;;;0.70;;
9228;SDS011;4649;42.644;23.284;2023-08-08T21:06:25;0.80;;;0.80;;
9228;SDS011;4649;42.644;23.284;2023-08-08T21:08:57;0.57;;;0.57;;
9228;SDS011;4649;42.644;23.284;2023-08-08T21:11:37;2.07;;;1.13;;
9228;SDS011;4649;42.644;23.284;2023-08-08T21:14:06;0.53;;;0.53;;
9228;SDS011;4649;42.644;23.284;2023-08-08T21:16:34;0.70;;;0.70;;
9228;SDS011;4649;42.644;23.284;2023-08-08T21:19:02;0.70;;;0.70;;
9228;SDS011;4649;42.644;23.284;2023-08-08T21:21:43;0.73;;;0.73;;
9228;SDS011;4649;42.644;23.284;2023-08-08T21:24:11;0.80;;;0.80;;
9228;SDS011;4649;42.644;23.284;2023-08-08T21:26:40;0.83;;;0.83;;
9228;SDS011;4649;42.644;23.284;2023-08-08T21:29:07;0.80;;;0.80;;
9228;SDS011;4649;42.644;23.284;2023-08-08T21:31:35;0.87;;;0.87;;
9228;SDS011;4649;42.644;23.284;2023-08-08T21:34:22;1.53;;;0.73;;
9228;SDS011;4649;42.644;23.284;2023-08-08T21:36:50;0.93;;;0.90;;
9228;SDS011;4649;42.644;23.284;2023-08-08T21:39:19;0.97;;;0.93;;
9228;SDS011;4649;42.644;23.284;2023-08-08T21:41:51;0.87;;;0.87;;
9228;SDS011;4649;42.644;23.284;2023-08-08T21:44:19;1.00;;;0.90;;
9228;SDS011;4649;42.644;23.284;2023-08-08T21:46:47;1.10;;;1.10;;
9228;SDS011;4649;42.644;23.284;2023-08-08T21:49:14;1.43;;;0.90;;
9228;SDS011;4649;42.644;23.284;2023-08-08T21:51:41;0.93;;;0.93;;
9228;SDS011;4649;42.644;23.284;2023-08-08T21:54:19;0.90;;;0.90;;
9228;SDS011;4649;42.644;23.284;2023-08-08T21:56:47;1.00;;;1.00;;
9228;SDS011;4649;42.644;23.284;2023-08-08T21:59:16;0.83;;;0.83;;
9228;SDS011;4649;42.644;23.284;2023-08-08T22:01:43;1.53;;;0.87;;
9228;SDS011;4649;42.644;23.284;2023-08-08T22:04:10;1.10;;;0.90;;
9228;SDS011;4649;42.644;23.284;2023-08-08T22:06:38;1.20;;;1.10;;
9228;SDS011;4649;42.644;23.284;2023-08-08T22:09:07;1.00;;;1.00;;
9228;SDS011;4649;42.644;23.284;2023-08-08T22:11:34;1.43;;;1.27;;
9228;SDS011;4649;42.644;23.284;2023-08-08T22:14:01;1.50;;;1.40;;
9228;SDS011;4649;42.644;23.284;2023-08-08T22:16:30;1.50;;;1.40;;
9228;SDS011;4649;42.644;23.284;2023-08-08T22:18:57;1.20;;;1.20;;
9228;SDS011;4649;42.644;23.284;2023-08-08T22:21:24;1.23;;;1.23;;
9228;SDS011;4649;42.644;23.284;2023-08-08T22:23:51;2.40;;;1.57;;
9228;SDS011;4649;42.644;23.284;2023-08-08T22:26:19;1.43;;;1.40;;
9228;SDS011;4649;42.644;23.284;2023-08-08T22:28:56;4.27;;;1.60;;
9228;SDS011;4649;42.644;23.284;2023-08-08T22:31:24;1.57;;;1.53;;
9228;SDS011;4649;42.644;23.284;2023-08-08T22:33:54;1.17;;;1.17;;
9228;SDS011;4649;42.644;23.284;2023-08-08T22:36:23;2.00;;;1.50;;
9228;SDS011;4649;42.644;23.284;2023-08-08T22:38:50;1.67;;;1.63;;
9228;SDS011;4649;42.644;23.284;2023-08-08T22:41:17;1.83;;;1.60;;
9228;SDS011;4649;42.644;23.284;2023-08-08T22:43:44;1.53;;;1.53;;
9228;SDS011;4649;42.644;23.284;2023-08-08T22:46:12;2.27;;;1.93;;
9228;SDS011;4649;42.644;23.284;2023-08-08T22:48:41;1.47;;;1.47;;
9228;SDS011;4649;42.644;23.284;2023-08-08T22:51:14;1.30;;;1.30;;
9228;SDS011;4649;42.644;23.284;2023-08-08T22:53:42;1.47;;;1.47;;
9228;SDS011;4649;42.644;23.284;2023-08-08T22:56:09;3.83;;;2.20;;
9228;SDS011;4649;42.644;23.284;2023-08-08T22:58:36;1.93;;;1.83;;
9228;SDS011;4649;42.644;23.284;2023-08-08T23:01:03;1.80;;;1.70;;
9228;SDS011;4649;42.644;23.284;2023-08-08T23:03:35;1.50;;;1.40;;
9228;SDS011;4649;42.644;23.284;2023-08-08T23:06:06;1.97;;;1.60;;
9228;SDS011;4649;42.644;23.284;2023-08-08T23:08:35;2.20;;;1.40;;
9228;SDS011;4649;42.644;23.284;2023-08-08T23:11:02;1.60;;;1.50;;
9228;SDS011;4649;42.644;23.284;2023-08-08T23:13:29;4.43;;;1.57;;
9228;SDS011;4649;42.644;23.284;2023-08-08T23:15:56;2.40;;;1.30;;
9228;SDS011;4649;42.644;23.284;2023-08-08T23:18:23;1.70;;;1.60;;
9228;SDS011;4649;42.644;23.284;2023-08-08T23:20:51;1.47;;;1.47;;
9228;SDS011;4649;42.644;23.284;2023-08-08T23:23:19;1.60;;;1.50;;
9228;SDS011;4649;42.644;23.284;2023-08-08T23:25:51;1.90;;;1.40;;
9228;SDS011;4649;42.644;23.284;2023-08-08T23:28:19;1.30;;;1.20;;
9228;SDS011;4649;42.644;23.284;2023-08-08T23:30:48;1.80;;;1.70;;
9228;SDS011;4649;42.644;23.284;2023-08-08T23:33:15;1.13;;;1.13;;
9228;SDS011;4649;42.644;23.284;2023-08-08T23:35:43;2.97;;;1.60;;
9228;SDS011;4649;42.644;23.284;2023-08-08T23:38:10;1.87;;;1.77;;
9228;SDS011;4649;42.644;23.284;2023-08-08T23:40:37;4.93;;;1.63;;
9228;SDS011;4649;42.644;23.284;2023-08-08T23:43:05;1.50;;;1.40;;
9228;SDS011;4649;42.644;23.284;2023-08-08T23:45:33;1.83;;;1.73;;
9228;SDS011;4649;42.644;23.284;2023-08-08T23:48:00;2.50;;;1.57;;
9228;SDS011;4649;42.644;23.284;2023-08-08T23:50:27;1.47;;;1.37;;
9228;SDS011;4649;42.644;23.284;2023-08-08T23:52:59;1.20;;;1.20;;
9228;SDS011;4649;42.644;23.284;2023-08-08T23:55:26;3.13;;;1.57;;
9228;SDS011;4649;42.644;23.284;2023-08-08T23:57:53;3.07;;;1.63;;
